Time;durP1;ratioP1;P1;durP2;ratioP2;P2;SDS_P1;SDS_P2;PMS_P1;PMS_P2;Temp;Humidity;BMP_temperature;BMP_pressure;BME280_temperature;BME280_humidity;BME280_pressure;Samples;Min_cycle;Max_cycle;Signal;HPM_P1;HPM_P2
2021/12/16 00:09:33;;;;;;;;;;;10.00;99.90;;;;;;5072610;28;19912;-61
2021/12/16 00:31:56;;;;;;;;;;;9.70;99.90;;;;;;5076741;28;19922;-61
2021/12/16 00:34:23;;;;;;;;;;;9.90;99.90;;;;;;5084968;28;20343;-62
2021/12/16 00:36:50;;;;;;;;;;;9.80;99.90;;;;;;5085071;28;19954;-62
2021/12/16 00:39:18;;;;;;;;;;;9.60;99.90;;;;;;5083071;28;19938;-61
2021/12/16 00:41:46;;;;;;;;;;;9.60;99.90;;;;;;5078408;28;19912;-61
2021/12/16 00:49:38;;;;;;;;;;;9.80;99.90;;;;;;5082425;28;19931;-62
2021/12/16 00:54:57;;;;;;;;;;;9.90;99.90;;;;;;5084861;28;20860;-62
2021/12/16 00:57:23;;;;;;;;;;;9.90;99.90;;;;;;5083314;28;20003;-62
2021/12/16 00:59:50;;;;;;;;;;;10.00;99.90;;;;;;5080687;28;20010;-61
2021/12/16 01:40:20;;;;;;;;;;;9.70;99.90;;;;;;5083355;28;19919;-62
2021/12/16 01:48:53;;;;;;;;;;;9.70;99.90;;;;;;5081126;28;20518;-62
2021/12/16 01:51:06;;;;;;;;;;;9.70;99.90;;;;;;5079592;28;19966;-61
2021/12/16 01:58:41;;;;;;;;;;;9.70;99.90;;;;;;5079877;28;19912;-61
2021/12/16 02:03:45;;;;;;;;;;;9.60;99.90;;;;;;5082318;28;19938;-61
2021/12/16 02:06:38;;;;;;;;;;;9.60;99.90;;;;;;5080190;28;19916;-62
2021/12/16 02:08:57;;;;;;;;;;;9.70;99.90;;;;;;5079287;28;19916;-62
2021/12/16 02:28:06;;;;;;;;;;;9.30;99.90;;;;;;5058300;28;19908;-61
2021/12/16 02:33:38;;;;;;;;;;;9.40;99.90;;;;;;5078749;28;20469;-61
2021/12/16 02:36:21;;;;;;;;;;;9.40;99.90;;;;;;5076100;28;19915;-61
2021/12/16 02:38:52;;;;;;;;;;;9.30;99.90;;;;;;5078508;28;20360;-61
2021/12/16 02:41:17;;;;;;;;;;;9.50;99.90;;;;;;5080790;28;20022;-61
2021/12/16 02:48:43;;;;;;;;;;;9.40;99.90;;;;;;5080987;28;19919;-61
2021/12/16 02:51:20;;;;;;;;;;;9.40;99.90;;;;;;5076571;28;19920;-62
2021/12/16 02:53:53;;;;;;;;;;;9.50;99.90;;;;;;5081418;28;19920;-62
2021/12/16 02:56:19;;;;;;;;;;;9.40;99.90;;;;;;5076867;28;20402;-62
2021/12/16 02:58:46;;;;;;;;;;;9.30;99.90;;;;;;5077159;28;19908;-62
2021/12/16 03:01:18;;;;;;;;;;;9.50;99.90;;;;;;5076498;28;20302;-62
2021/12/16 03:03:44;;;;;;;;;;;9.50;99.90;;;;;;5082687;28;19912;-62
2021/12/16 03:06:11;;;;;;;;;;;9.30;99.90;;;;;;5082472;28;19931;-62
2021/12/16 03:08:37;;;;;;;;;;;9.20;99.90;;;;;;5078808;28;19916;-61
2021/12/16 03:11:15;;;;;;;;;;;9.10;99.90;;;;;;5080249;28;19931;-62
2021/12/16 03:16:36;;;;;;;;;;;9.30;99.90;;;;;;5077613;28;20255;-62
2021/12/16 03:21:36;;;;;;;;;;;9.20;99.90;;;;;;5080237;28;19923;-62
2021/12/16 03:24:23;;;;;;;;;;;9.20;99.90;;;;;;5081511;28;19908;-61
2021/12/16 03:29:37;;;;;;;;;;;8.90;99.90;;;;;;5082714;28;19912;-61
2021/12/16 03:32:21;;;;;;;;;;;9.10;99.90;;;;;;5078694;28;19919;-61
2021/12/16 03:35:03;;;;;;;;;;;9.20;99.90;;;;;;5079411;28;19993;-62
2021/12/16 03:37:30;;;;;;;;;;;9.00;99.90;;;;;;5081662;28;19908;-61
2021/12/16 03:40:02;;;;;;;;;;;8.90;99.90;;;;;;5083568;28;20359;-61
2021/12/16 03:42:36;;;;;;;;;;;8.90;99.90;;;;;;5083835;28;19912;-62
2021/12/16 03:47:59;;;;;;;;;;;8.90;99.90;;;;;;5084897;28;20077;-61
2021/12/16 03:50:24;;;;;;;;;;;8.80;99.90;;;;;;5085838;28;19995;-62
2021/12/16 03:52:50;;;;;;;;;;;8.70;99.90;;;;;;5086151;28;19915;-61
2021/12/16 03:55:16;;;;;;;;;;;8.80;99.90;;;;;;5083131;28;19952;-61
2021/12/16 03:57:43;;;;;;;;;;;8.80;99.90;;;;;;5077769;28;20387;-61
2021/12/16 04:00:11;;;;;;;;;;;8.80;99.90;;;;;;5083737;28;20309;-62
2021/12/16 04:02:37;;;;;;;;;;;8.70;99.90;;;;;;5085868;28;19908;-61
2021/12/16 04:05:05;;;;;;;;;;;8.80;99.90;;;;;;5082025;28;19908;-61
2021/12/16 04:07:32;;;;;;;;;;;8.70;99.90;;;;;;5082929;28;19943;-62
2021/12/16 04:09:58;;;;;;;;;;;8.80;99.90;;;;;;5081205;28;20336;-61
2021/12/16 04:12:26;;;;;;;;;;;8.70;99.90;;;;;;5084415;28;20244;-62
2021/12/16 04:14:55;;;;;;;;;;;8.70;99.90;;;;;;5082393;28;19912;-61
2021/12/16 04:17:22;;;;;;;;;;;8.60;99.90;;;;;;5081289;28;19916;-62
2021/12/16 04:19:48;;;;;;;;;;;8.50;99.90;;;;;;5092115;28;19916;-61
2021/12/16 04:22:30;;;;;;;;;;;8.50;99.90;;;;;;5084522;28;20015;-62
2021/12/16 04:24:57;;;;;;;;;;;8.50;99.90;;;;;;5085723;28;19912;-62
2021/12/16 04:27:22;;;;;;;;;;;8.50;99.90;;;;;;5083044;28;19927;-62
2021/12/16 04:29:48;;;;;;;;;;;8.40;99.90;;;;;;5083118;28;20295;-62
2021/12/16 04:32:14;;;;;;;;;;;8.40;99.90;;;;;;5078291;28;19913;-61
2021/12/16 04:34:39;;;;;;;;;;;8.30;99.90;;;;;;5081554;28;20326;-62
2021/12/16 04:37:05;;;;;;;;;;;8.20;99.90;;;;;;5082814;28;20360;-62
2021/12/16 04:39:33;;;;;;;;;;;8.20;99.90;;;;;;5084279;28;20417;-62
2021/12/16 04:41:59;;;;;;;;;;;8.30;99.90;;;;;;5083829;28;19920;-62
2021/12/16 04:44:25;;;;;;;;;;;8.20;99.90;;;;;;5080171;28;20376;-61
2021/12/16 04:46:52;;;;;;;;;;;8.20;99.90;;;;;;5083477;28;20461;-62
2021/12/16 04:49:17;;;;;;;;;;;8.10;99.90;;;;;;5080263;28;19912;-61
2021/12/16 04:51:47;;;;;;;;;;;8.10;99.90;;;;;;5079981;28;20000;-62
2021/12/16 04:54:13;;;;;;;;;;;8.00;99.90;;;;;;5083011;28;20359;-61
2021/12/16 04:56:40;;;;;;;;;;;8.10;99.90;;;;;;5082245;28;19908;-62
2021/12/16 04:59:08;;;;;;;;;;;8.20;99.90;;;;;;5083668;28;20193;-62
2021/12/16 05:01:34;;;;;;;;;;;8.10;99.90;;;;;;5081980;28;20360;-61
2021/12/16 05:04:00;;;;;;;;;;;8.00;99.90;;;;;;5079308;28;20296;-61
2021/12/16 05:06:25;;;;;;;;;;;8.00;99.90;;;;;;5082221;28;19908;-62
2021/12/16 05:08:51;;;;;;;;;;;8.00;99.90;;;;;;5081845;28;19908;-61
2021/12/16 05:11:16;;;;;;;;;;;8.00;99.90;;;;;;5084726;28;19959;-62
2021/12/16 05:13:42;;;;;;;;;;;8.00;99.90;;;;;;5083643;28;19919;-62
2021/12/16 05:16:08;;;;;;;;;;;7.90;99.90;;;;;;5082493;28;20420;-61
2021/12/16 05:18:36;;;;;;;;;;;7.80;99.90;;;;;;5076472;28;19939;-61
2021/12/16 05:21:06;;;;;;;;;;;7.80;99.90;;;;;;5084685;28;19934;-62
2021/12/16 05:26:22;;;;;;;;;;;7.50;99.90;;;;;;5083089;28;19969;-61
2021/12/16 05:28:52;;;;;;;;;;;7.60;99.90;;;;;;5083631;28;19916;-62
2021/12/16 05:31:18;;;;;;;;;;;7.60;99.90;;;;;;5081561;28;19908;-62
2021/12/16 05:33:44;;;;;;;;;;;7.60;99.90;;;;;;5084050;28;19916;-61
2021/12/16 05:36:10;;;;;;;;;;;7.40;99.90;;;;;;5082781;28;19909;-62
2021/12/16 05:38:35;;;;;;;;;;;7.30;99.90;;;;;;5077900;28;20356;-61
2021/12/16 05:41:04;;;;;;;;;;;7.40;99.90;;;;;;5081760;28;20791;-61
2021/12/16 05:43:30;;;;;;;;;;;7.40;99.90;;;;;;5077434;28;20271;-61
2021/12/16 05:45:56;;;;;;;;;;;7.30;99.90;;;;;;5082526;28;19912;-61
2021/12/16 05:48:23;;;;;;;;;;;7.10;99.90;;;;;;5084082;28;20006;-61
2021/12/16 05:50:51;;;;;;;;;;;7.10;99.90;;;;;;5083895;28;20328;-61
2021/12/16 05:53:17;;;;;;;;;;;7.10;99.90;;;;;;5078849;28;20352;-62
2021/12/16 05:55:43;;;;;;;;;;;7.10;99.90;;;;;;5082595;28;19915;-61
2021/12/16 05:58:10;;;;;;;;;;;7.20;99.90;;;;;;5075486;28;19916;-61
2021/12/16 06:00:37;;;;;;;;;;;7.00;99.90;;;;;;5081047;28;20013;-61
2021/12/16 06:03:03;;;;;;;;;;;7.10;99.90;;;;;;5078606;28;19912;-61
2021/12/16 06:05:29;;;;;;;;;;;7.00;99.90;;;;;;5079745;28;19908;-61
2021/12/16 06:07:54;;;;;;;;;;;6.80;99.90;;;;;;5081172;28;20360;-61
2021/12/16 06:11:00;;;;;;;;;;;6.80;99.90;;;;;;5082070;28;19923;-61
2021/12/16 06:13:09;;;;;;;;;;;6.80;99.90;;;;;;5076841;28;19993;-61
2021/12/16 06:26:41;;;;;;;;;;;6.70;99.90;;;;;;5079048;28;19926;-61
2021/12/16 06:29:06;;;;;;;;;;;6.70;99.90;;;;;;5080915;28;20328;-61
2021/12/16 06:31:32;;;;;;;;;;;6.70;99.90;;;;;;5080686;28;19934;-61
2021/12/16 06:33:58;;;;;;;;;;;6.60;99.90;;;;;;5076771;28;19919;-61
2021/12/16 06:36:23;;;;;;;;;;;6.50;99.90;;;;;;5067259;28;20019;-61
2021/12/16 06:38:49;;;;;;;;;;;6.50;99.90;;;;;;5073862;28;19969;-61
2021/12/16 06:41:15;;;;;;;;;;;6.40;99.90;;;;;;5075806;28;20378;-61
2021/12/16 06:43:42;;;;;;;;;;;6.50;99.90;;;;;;5075548;28;19955;-61
2021/12/16 06:46:12;;;;;;;;;;;6.40;99.90;;;;;;5075930;28;20264;-61
2021/12/16 06:48:40;;;;;;;;;;;6.50;99.90;;;;;;5070980;28;19923;-61
2021/12/16 06:51:14;;;;;;;;;;;6.30;99.90;;;;;;5075869;28;19920;-61
2021/12/16 06:56:18;;;;;;;;;;;6.30;99.90;;;;;;5079067;28;19978;-61
2021/12/16 06:58:48;;;;;;;;;;;6.40;99.90;;;;;;5072364;28;19998;-61
2021/12/16 07:01:30;;;;;;;;;;;6.30;99.90;;;;;;5071859;28;19912;-62
2021/12/16 07:03:56;;;;;;;;;;;6.20;99.90;;;;;;5078317;28;19908;-61
2021/12/16 07:06:23;;;;;;;;;;;6.30;99.90;;;;;;5075566;28;19912;-62
2021/12/16 07:08:49;;;;;;;;;;;6.20;99.90;;;;;;5073196;28;20014;-61
2021/12/16 07:11:16;;;;;;;;;;;5.90;99.90;;;;;;5079403;28;19915;-61
2021/12/16 07:13:45;;;;;;;;;;;5.80;99.90;;;;;;5076702;28;20384;-62
2021/12/16 07:16:11;;;;;;;;;;;6.10;99.90;;;;;;5082485;28;20394;-62
2021/12/16 07:18:37;;;;;;;;;;;6.40;99.90;;;;;;5076673;28;19916;-61
2021/12/16 07:21:03;;;;;;;;;;;6.30;99.90;;;;;;5077473;28;20087;-61
2021/12/16 07:23:29;;;;;;;;;;;6.20;99.90;;;;;;5082907;28;20391;-61
2021/12/16 07:25:56;;;;;;;;;;;6.40;99.90;;;;;;5086551;28;19991;-61
2021/12/16 07:28:22;;;;;;;;;;;6.40;99.90;;;;;;5077871;28;19908;-61
2021/12/16 07:30:49;;;;;;;;;;;6.60;99.90;;;;;;5081076;28;19923;-62
2021/12/16 07:33:16;;;;;;;;;;;6.70;99.90;;;;;;5078588;28;20366;-61
2021/12/16 07:35:42;;;;;;;;;;;6.60;99.90;;;;;;5084676;28;20416;-61
2021/12/16 07:38:08;;;;;;;;;;;6.50;99.90;;;;;;5081670;28;19919;-61
2021/12/16 07:40:34;;;;;;;;;;;6.60;99.90;;;;;;5079751;28;19939;-61
2021/12/16 07:45:27;;;;;;;;;;;6.70;99.90;;;;;;5086740;28;20015;-62
2021/12/16 07:47:53;;;;;;;;;;;6.70;99.90;;;;;;5083895;28;20512;-61
2021/12/16 07:50:19;;;;;;;;;;;7.10;99.90;;;;;;5080710;28;19924;-61
2021/12/16 07:52:44;;;;;;;;;;;7.20;99.90;;;;;;5083166;28;20368;-63
2021/12/16 07:55:10;;;;;;;;;;;7.00;99.90;;;;;;5085275;28;19972;-62
2021/12/16 07:57:36;;;;;;;;;;;7.10;99.90;;;;;;5092803;28;20271;-63
2021/12/16 08:00:04;;;;;;;;;;;7.20;99.90;;;;;;5081154;28;19908;-63
2021/12/16 08:02:29;;;;;;;;;;;7.20;99.90;;;;;;5082650;28;19951;-62
2021/12/16 08:04:55;;;;;;;;;;;7.30;99.90;;;;;;5078376;28;20412;-63
2021/12/16 08:07:21;;;;;;;;;;;7.30;99.90;;;;;;5082433;28;19924;-63
2021/12/16 08:09:47;;;;;;;;;;;7.30;99.90;;;;;;5084855;28;19920;-64
2021/12/16 08:12:13;;;;;;;;;;;7.30;99.90;;;;;;5079128;28;20396;-62
2021/12/16 08:14:40;;;;;;;;;;;7.30;99.90;;;;;;5084864;28;19912;-63
2021/12/16 08:17:05;;;;;;;;;;;7.40;99.90;;;;;;5075616;28;19951;-63
2021/12/16 08:19:31;;;;;;;;;;;7.40;99.90;;;;;;5076590;28;19959;-62
2021/12/16 08:21:57;;;;;;;;;;;7.40;99.90;;;;;;5080568;28;20112;-63
2021/12/16 08:24:22;;;;;;;;;;;7.60;99.90;;;;;;5081511;28;19959;-62
2021/12/16 08:26:51;;;;;;;;;;;7.90;99.90;;;;;;5080843;28;20568;-63
2021/12/16 08:29:17;;;;;;;;;;;7.90;99.90;;;;;;5080314;28;20375;-62
2021/12/16 08:31:43;;;;;;;;;;;7.80;99.90;;;;;;5083794;28;19926;-62
2021/12/16 08:34:10;;;;;;;;;;;8.00;99.90;;;;;;5082737;28;20587;-63
2021/12/16 08:36:35;;;;;;;;;;;8.00;99.90;;;;;;5076336;28;20473;-63
2021/12/16 08:39:03;;;;;;;;;;;8.00;99.90;;;;;;5078875;28;19916;-62
2021/12/16 08:41:30;;;;;;;;;;;8.00;99.90;;;;;;5081225;28;19990;-62
2021/12/16 08:43:56;;;;;;;;;;;8.00;99.90;;;;;;5080005;28;19924;-62
2021/12/16 08:46:23;;;;;;;;;;;8.00;99.90;;;;;;5078321;28;19920;-62
2021/12/16 08:48:49;;;;;;;;;;;8.10;99.90;;;;;;5084835;28;19912;-64
2021/12/16 08:51:16;;;;;;;;;;;8.10;99.90;;;;;;5074621;28;20469;-65
2021/12/16 08:53:42;;;;;;;;;;;8.10;99.90;;;;;;5075560;28;20601;-63
2021/12/16 08:56:08;;;;;;;;;;;8.10;99.90;;;;;;5079195;28;19922;-63
2021/12/16 08:58:34;;;;;;;;;;;8.20;99.90;;;;;;5076772;28;19987;-63
2021/12/16 09:01:02;;;;;;;;;;;8.20;99.90;;;;;;5078647;28;20014;-64
2021/12/16 09:03:29;;;;;;;;;;;8.30;99.90;;;;;;5082629;28;20598;-65
2021/12/16 09:05:55;;;;;;;;;;;8.30;99.90;;;;;;5080085;28;19912;-63
2021/12/16 09:08:21;;;;;;;;;;;8.50;99.90;;;;;;5075002;28;19957;-64
2021/12/16 09:10:46;;;;;;;;;;;8.40;99.90;;;;;;5076830;28;20240;-64
2021/12/16 09:13:14;;;;;;;;;;;8.30;99.90;;;;;;5074096;28;19916;-63
2021/12/16 09:15:40;;;;;;;;;;;8.20;99.90;;;;;;5074204;28;19924;-64
2021/12/16 09:18:06;;;;;;;;;;;8.20;99.90;;;;;;5073800;28;19912;-63
2021/12/16 09:20:32;;;;;;;;;;;8.20;99.90;;;;;;5076301;28;19912;-64
2021/12/16 09:22:58;;;;;;;;;;;8.10;99.90;;;;;;5074737;28;20315;-64
2021/12/16 09:25:24;;;;;;;;;;;7.90;99.90;;;;;;5082716;28;20002;-63
2021/12/16 09:27:49;;;;;;;;;;;7.90;99.90;;;;;;5081256;28;19961;-64
2021/12/16 09:30:17;;;;;;;;;;;8.00;99.90;;;;;;5071918;28;19924;-64
2021/12/16 09:32:42;;;;;;;;;;;7.90;99.90;;;;;;5079991;28;19923;-63
2021/12/16 09:35:10;;;;;;;;;;;8.00;99.90;;;;;;5083627;28;19912;-63
2021/12/16 09:37:36;;;;;;;;;;;8.20;99.90;;;;;;5068386;28;19912;-63
2021/12/16 09:40:03;;;;;;;;;;;8.20;99.90;;;;;;5072521;28;20017;-63
2021/12/16 09:42:30;;;;;;;;;;;8.30;99.90;;;;;;5082216;28;19963;-64
2021/12/16 09:44:56;;;;;;;;;;;8.40;99.90;;;;;;5083236;28;20352;-63
2021/12/16 09:47:23;;;;;;;;;;;8.30;99.90;;;;;;5080521;28;19923;-63
2021/12/16 09:49:49;;;;;;;;;;;8.20;99.90;;;;;;5075880;28;19923;-63
2021/12/16 09:52:14;;;;;;;;;;;8.20;99.90;;;;;;5074448;28;19916;-63
2021/12/16 09:54:42;;;;;;;;;;;8.20;99.90;;;;;;5083273;28;19920;-64
2021/12/16 09:57:08;;;;;;;;;;;8.30;99.90;;;;;;5079594;28;19920;-63
2021/12/16 09:59:34;;;;;;;;;;;8.50;99.90;;;;;;5080439;28;20335;-64
2021/12/16 10:02:01;;;;;;;;;;;8.50;99.90;;;;;;5073725;28;20445;-63
2021/12/16 10:04:31;;;;;;;;;;;8.60;99.90;;;;;;5080302;28;19916;-63
2021/12/16 10:06:58;;;;;;;;;;;8.60;99.90;;;;;;5081920;28;19913;-63
2021/12/16 10:09:23;;;;;;;;;;;8.80;99.90;;;;;;5078544;28;19919;-63
2021/12/16 10:11:50;;;;;;;;;;;8.80;99.90;;;;;;5081000;28;19908;-64
2021/12/16 10:15:07;;;;;;;;;;;8.90;99.90;;;;;;5076381;28;19936;-63
2021/12/16 10:17:25;;;;;;;;;;;8.80;99.90;;;;;;5071621;28;19927;-63
2021/12/16 10:19:52;;;;;;;;;;;8.70;99.90;;;;;;5074569;28;19919;-63
2021/12/16 10:22:27;;;;;;;;;;;8.60;99.90;;;;;;5079429;28;20015;-63
2021/12/16 10:24:54;;;;;;;;;;;8.60;99.90;;;;;;5078237;28;19924;-63
2021/12/16 10:27:21;;;;;;;;;;;8.60;99.90;;;;;;5076340;28;19954;-63
2021/12/16 10:29:49;;;;;;;;;;;8.60;99.90;;;;;;5078197;28;20403;-64
2021/12/16 10:32:36;;;;;;;;;;;8.70;99.90;;;;;;5072568;28;19934;-63
2021/12/16 10:35:05;;;;;;;;;;;8.70;99.90;;;;;;5079459;28;19923;-63
2021/12/16 10:37:32;;;;;;;;;;;8.60;99.90;;;;;;5074866;28;19948;-63
2021/12/16 10:40:17;;;;;;;;;;;8.70;99.90;;;;;;5078076;28;19926;-63
2021/12/16 10:42:44;;;;;;;;;;;8.60;99.90;;;;;;5082519;28;20357;-63
2021/12/16 10:45:23;;;;;;;;;;;8.60;99.90;;;;;;5073044;28;19937;-63
2021/12/16 10:48:08;;;;;;;;;;;8.70;99.90;;;;;;5075130;28;19986;-63
2021/12/16 10:50:47;;;;;;;;;;;8.80;99.90;;;;;;5092598;28;20398;-63
2021/12/16 10:53:13;;;;;;;;;;;8.80;99.90;;;;;;5081268;28;20227;-63
2021/12/16 10:55:55;;;;;;;;;;;8.80;99.90;;;;;;5079178;28;19919;-63
2021/12/16 10:58:20;;;;;;;;;;;8.70;99.90;;;;;;5067179;28;19943;-62
2021/12/16 11:00:46;;;;;;;;;;;8.70;99.90;;;;;;5080498;28;19920;-64
2021/12/16 11:03:31;;;;;;;;;;;8.80;99.90;;;;;;5080016;28;20454;-63
2021/12/16 11:05:56;;;;;;;;;;;8.80;99.90;;;;;;5079265;28;19964;-64
2021/12/16 11:08:22;;;;;;;;;;;9.00;99.90;;;;;;5077483;28;20396;-63
2021/12/16 11:10:48;;;;;;;;;;;9.10;99.90;;;;;;5084120;28;19971;-63
2021/12/16 11:13:14;;;;;;;;;;;9.20;99.90;;;;;;5071782;28;19913;-63
2021/12/16 11:15:52;;;;;;;;;;;9.30;99.90;;;;;;5076434;28;20522;-63
2021/12/16 11:18:22;;;;;;;;;;;9.40;99.90;;;;;;5067958;28;19969;-63
2021/12/16 11:20:53;;;;;;;;;;;9.50;99.90;;;;;;5074905;28;19912;-63
2021/12/16 11:23:21;;;;;;;;;;;9.30;99.90;;;;;;5071546;28;19995;-63
2021/12/16 11:25:52;;;;;;;;;;;9.30;99.90;;;;;;5079338;28;19918;-63
2021/12/16 11:28:23;;;;;;;;;;;9.20;99.90;;;;;;5083003;28;20042;-63
2021/12/16 11:30:56;;;;;;;;;;;9.30;99.90;;;;;;5077210;28;20454;-63
2021/12/16 11:33:32;;;;;;;;;;;9.30;99.90;;;;;;5078844;28;20007;-64
2021/12/16 11:35:57;;;;;;;;;;;9.40;99.90;;;;;;5075584;28;19931;-64
2021/12/16 11:38:31;;;;;;;;;;;9.60;99.90;;;;;;5070294;28;19916;-64
2021/12/16 11:41:02;;;;;;;;;;;9.50;99.90;;;;;;5077124;28;20452;-63
2021/12/16 11:43:34;;;;;;;;;;;9.40;99.90;;;;;;5082813;28;20377;-64
2021/12/16 11:45:59;;;;;;;;;;;9.30;99.90;;;;;;5078390;28;19916;-63
2021/12/16 11:48:33;;;;;;;;;;;9.30;99.90;;;;;;5081255;28;19915;-63
2021/12/16 11:51:04;;;;;;;;;;;9.20;99.90;;;;;;5083432;28;20418;-63
2021/12/16 11:53:34;;;;;;;;;;;9.30;99.90;;;;;;5077273;28;20331;-64
2021/12/16 11:55:59;;;;;;;;;;;9.50;99.90;;;;;;5082309;28;20382;-63
2021/12/16 11:58:28;;;;;;;;;;;9.50;99.90;;;;;;5078325;28;19934;-63
2021/12/16 12:00:54;;;;;;;;;;;9.60;99.90;;;;;;5074920;28;19965;-64
2021/12/16 12:03:19;;;;;;;;;;;9.60;99.90;;;;;;5076889;28;20310;-63
2021/12/16 12:05:50;;;;;;;;;;;9.70;99.90;;;;;;5084665;28;19914;-63
2021/12/16 12:08:21;;;;;;;;;;;9.60;99.90;;;;;;5079454;28;19990;-64
2021/12/16 12:10:58;;;;;;;;;;;9.70;99.90;;;;;;5069972;28;19950;-64
2021/12/16 12:13:35;;;;;;;;;;;9.80;99.90;;;;;;5082145;28;19908;-63
2021/12/16 12:16:07;;;;;;;;;;;9.90;99.90;;;;;;5080169;28;20038;-64
2021/12/16 12:18:34;;;;;;;;;;;9.70;99.90;;;;;;5076644;28;20358;-64
2021/12/16 12:21:18;;;;;;;;;;;10.00;99.90;;;;;;5084490;28;20264;-63
2021/12/16 12:23:44;;;;;;;;;;;9.90;99.90;;;;;;5076183;28;19912;-64
2021/12/16 12:26:16;;;;;;;;;;;9.90;99.90;;;;;;5078006;28;19919;-63
2021/12/16 12:28:49;;;;;;;;;;;9.90;99.90;;;;;;5073923;28;19951;-64
2021/12/16 12:31:16;;;;;;;;;;;9.90;99.90;;;;;;5084080;28;19911;-63
2021/12/16 12:33:42;;;;;;;;;;;9.70;99.90;;;;;;5083812;28;19916;-64
2021/12/16 12:36:08;;;;;;;;;;;9.70;99.90;;;;;;5082831;28;19942;-63
2021/12/16 12:38:35;;;;;;;;;;;9.80;99.90;;;;;;5077107;28;19921;-64
2021/12/16 12:41:02;;;;;;;;;;;9.80;99.90;;;;;;5083033;28;19919;-63
2021/12/16 12:43:29;;;;;;;;;;;9.80;99.90;;;;;;5078583;28;19918;-63
2021/12/16 12:45:55;;;;;;;;;;;9.80;99.90;;;;;;5080685;28;20526;-63
2021/12/16 12:48:20;;;;;;;;;;;9.60;99.90;;;;;;5082867;28;19976;-63
2021/12/16 12:50:48;;;;;;;;;;;9.50;99.90;;;;;;5085500;28;19973;-63
2021/12/16 12:53:19;;;;;;;;;;;9.40;99.90;;;;;;5084960;28;19961;-63
2021/12/16 12:55:46;;;;;;;;;;;9.70;99.90;;;;;;5083004;28;20291;-64
2021/12/16 12:58:11;;;;;;;;;;;9.60;99.90;;;;;;5075978;28;19916;-63
2021/12/16 13:00:40;;;;;;;;;;;9.50;99.90;;;;;;5076379;28;19920;-64
2021/12/16 13:03:11;;;;;;;;;;;9.60;99.90;;;;;;5074057;28;20306;-64
2021/12/16 13:05:37;;;;;;;;;;;9.70;99.90;;;;;;5084894;28;19908;-64
2021/12/16 13:08:03;;;;;;;;;;;9.50;99.90;;;;;;5077278;28;19912;-64
2021/12/16 13:10:40;;;;;;;;;;;9.50;99.90;;;;;;5085185;28;20746;-63
2021/12/16 13:27:20;;;;;;;;;;;9.60;99.90;;;;;;5079527;28;19968;-64
2021/12/16 13:30:17;;;;;;;;;;;9.60;99.90;;;;;;5072372;28;20039;-64
2021/12/16 13:33:12;;;;;;;;;;;9.70;99.90;;;;;;5076671;28;20275;-64
2021/12/16 13:35:46;;;;;;;;;;;9.70;99.90;;;;;;5081115;28;19973;-63
2021/12/16 13:38:11;;;;;;;;;;;9.50;99.90;;;;;;5078596;28;20291;-63
2021/12/16 13:40:40;;;;;;;;;;;9.60;99.90;;;;;;5083483;28;19908;-64
2021/12/16 13:43:12;;;;;;;;;;;9.60;99.90;;;;;;5083928;28;20411;-64
2021/12/16 13:45:49;;;;;;;;;;;9.40;99.90;;;;;;5069480;28;20313;-64
2021/12/16 13:48:56;;;;;;;;;;;9.40;99.90;;;;;;5070967;28;19958;-64
2021/12/16 14:05:04;;;;;;;;;;;9.70;99.90;;;;;;5077687;28;19927;-64
2021/12/16 14:07:54;;;;;;;;;;;9.50;99.90;;;;;;5075516;28;20023;-64
2021/12/16 14:10:28;;;;;;;;;;;9.60;99.90;;;;;;5077072;28;20394;-64
2021/12/16 14:15:55;;;;;;;;;;;9.60;99.90;;;;;;5076859;28;19919;-64
2021/12/16 14:22:58;;;;;;;;;;;9.90;99.90;;;;;;5068704;28;19920;-64
2021/12/16 14:24:14;;;;;;;;;;;9.70;99.90;;;;;;5075028;28;20030;-63
2021/12/16 14:27:02;;;;;;;;;;;9.60;99.90;;;;;;5080642;28;19916;-64
2021/12/16 14:33:30;;;;;;;;;;;9.90;99.90;;;;;;5078419;28;19939;-64
2021/12/16 14:35:28;;;;;;;;;;;9.60;99.90;;;;;;5073246;28;20079;-64
2021/12/16 14:38:11;;;;;;;;;;;9.40;99.90;;;;;;5080018;28;19922;-64
2021/12/16 14:40:51;;;;;;;;;;;9.50;99.90;;;;;;5080178;28;20438;-64
2021/12/16 14:43:35;;;;;;;;;;;9.50;99.90;;;;;;5081842;28;19919;-64
2021/12/16 14:46:04;;;;;;;;;;;9.30;99.90;;;;;;5081909;28;19939;-63
2021/12/16 14:48:35;;;;;;;;;;;9.40;99.90;;;;;;5081466;28;19954;-64
2021/12/16 14:51:09;;;;;;;;;;;9.70;99.90;;;;;;5075515;28;19998;-63
2021/12/16 14:53:36;;;;;;;;;;;9.60;99.90;;;;;;5070817;28;20018;-64
2021/12/16 14:56:13;;;;;;;;;;;9.80;99.90;;;;;;5085473;28;19965;-64
2021/12/16 14:58:40;;;;;;;;;;;9.70;99.90;;;;;;5074838;28;20389;-64
2021/12/16 15:01:08;;;;;;;;;;;9.70;99.90;;;;;;5078513;28;20065;-64
2021/12/16 15:03:38;;;;;;;;;;;9.90;99.90;;;;;;5077488;28;19908;-64
2021/12/16 15:06:06;;;;;;;;;;;9.80;99.90;;;;;;5076096;28;19915;-64
2021/12/16 15:08:49;;;;;;;;;;;9.80;99.90;;;;;;5077874;28;20308;-64
2021/12/16 15:11:18;;;;;;;;;;;9.70;99.90;;;;;;5074115;28;19955;-64
2021/12/16 15:13:57;;;;;;;;;;;9.70;99.90;;;;;;5075956;28;20031;-64
2021/12/16 15:16:44;;;;;;;;;;;9.60;99.90;;;;;;5074502;28;19919;-63
2021/12/16 15:36:06;;;;;;;;;;;9.20;99.90;;;;;;5079357;28;19961;-64
2021/12/16 15:38:45;;;;;;;;;;;9.30;99.90;;;;;;5075901;28;19912;-64
2021/12/16 15:43:57;;;;;;;;;;;9.60;99.90;;;;;;5081314;28;20382;-63
2021/12/16 15:46:29;;;;;;;;;;;9.70;99.90;;;;;;5085835;28;19946;-64
2021/12/16 15:48:54;;;;;;;;;;;9.60;99.90;;;;;;5070132;28;20578;-63
2021/12/16 15:51:22;;;;;;;;;;;9.60;99.90;;;;;;5080486;28;19916;-64
2021/12/16 15:53:52;;;;;;;;;;;9.50;99.90;;;;;;5078441;28;19943;-64
2021/12/16 15:56:43;;;;;;;;;;;9.40;99.90;;;;;;5079474;28;20331;-64
2021/12/16 15:59:13;;;;;;;;;;;9.40;99.90;;;;;;5064173;28;20364;-63
2021/12/16 16:01:41;;;;;;;;;;;9.30;99.90;;;;;;5076173;28;19936;-63
2021/12/16 16:04:26;;;;;;;;;;;9.30;99.90;;;;;;5078812;28;20609;-63
2021/12/16 16:06:56;;;;;;;;;;;9.50;99.90;;;;;;5077860;28;20399;-64
2021/12/16 16:09:21;;;;;;;;;;;9.30;99.90;;;;;;5082646;28;19929;-64
2021/12/16 16:11:51;;;;;;;;;;;9.30;99.90;;;;;;5076700;28;19922;-64
2021/12/16 16:14:18;;;;;;;;;;;9.30;99.90;;;;;;5081573;28;19969;-64
2021/12/16 16:16:49;;;;;;;;;;;9.40;99.90;;;;;;5076201;28;20015;-63
2021/12/16 16:19:17;;;;;;;;;;;9.30;99.90;;;;;;5081382;28;19929;-64
2021/12/16 16:21:44;;;;;;;;;;;9.30;99.90;;;;;;5076614;28;19916;-64
2021/12/16 16:24:12;;;;;;;;;;;9.40;99.90;;;;;;5076974;28;19957;-63
2021/12/16 16:26:39;;;;;;;;;;;9.40;99.90;;;;;;5079264;28;19942;-64
2021/12/16 16:29:06;;;;;;;;;;;9.40;99.90;;;;;;5076320;28;19939;-64
2021/12/16 16:31:33;;;;;;;;;;;9.40;99.90;;;;;;5073551;28;19934;-64
2021/12/16 16:33:59;;;;;;;;;;;9.40;99.90;;;;;;5080798;28;20581;-64
2021/12/16 16:36:25;;;;;;;;;;;9.40;99.90;;;;;;5084466;28;19908;-64
2021/12/16 16:38:59;;;;;;;;;;;9.40;99.90;;;;;;5077039;28;20405;-63
2021/12/16 16:41:27;;;;;;;;;;;9.40;99.90;;;;;;5069901;28;20367;-63
2021/12/16 16:44:04;;;;;;;;;;;9.40;99.90;;;;;;5079277;28;20255;-63
2021/12/16 16:46:36;;;;;;;;;;;9.40;99.90;;;;;;5078424;28;19912;-63
2021/12/16 16:49:05;;;;;;;;;;;9.30;99.90;;;;;;5072142;28;20402;-64
2021/12/16 16:51:40;;;;;;;;;;;9.30;99.90;;;;;;5076746;28;20274;-64
2021/12/16 16:54:08;;;;;;;;;;;9.30;99.90;;;;;;5077084;28;19916;-63
2021/12/16 16:56:45;;;;;;;;;;;9.20;99.90;;;;;;5072536;28;19913;-63
2021/12/16 16:59:12;;;;;;;;;;;9.30;99.90;;;;;;5090442;28;19920;-64
2021/12/16 17:01:38;;;;;;;;;;;9.20;99.90;;;;;;5078532;28;19918;-63
2021/12/16 17:04:05;;;;;;;;;;;9.20;99.90;;;;;;5078109;28;19958;-63
2021/12/16 17:06:32;;;;;;;;;;;9.30;99.90;;;;;;5074479;28;19912;-64
2021/12/16 17:08:59;;;;;;;;;;;9.30;99.90;;;;;;5081556;28;19947;-63
2021/12/16 17:11:26;;;;;;;;;;;9.20;99.90;;;;;;5071547;28;20280;-64
2021/12/16 17:14:11;;;;;;;;;;;9.20;99.90;;;;;;5071212;28;20015;-63
2021/12/16 17:19:26;;;;;;;;;;;9.00;99.90;;;;;;5078418;28;20057;-64
2021/12/16 17:21:52;;;;;;;;;;;9.00;99.90;;;;;;5078609;28;19911;-63
2021/12/16 17:24:23;;;;;;;;;;;9.10;99.90;;;;;;5073488;28;20010;-64
2021/12/16 17:26:54;;;;;;;;;;;9.10;99.90;;;;;;5076968;28;19912;-64
2021/12/16 17:29:24;;;;;;;;;;;9.10;99.90;;;;;;5077205;28;20528;-64
2021/12/16 17:31:50;;;;;;;;;;;9.20;99.90;;;;;;5072828;28;19959;-64
2021/12/16 17:34:17;;;;;;;;;;;9.20;99.90;;;;;;5074639;28;20024;-64
2021/12/16 17:36:54;;;;;;;;;;;9.20;99.90;;;;;;5083151;28;19916;-64
2021/12/16 17:39:21;;;;;;;;;;;9.10;99.90;;;;;;5068090;28;20332;-63
2021/12/16 17:41:53;;;;;;;;;;;9.20;99.90;;;;;;5080246;28;19947;-64
2021/12/16 17:44:18;;;;;;;;;;;9.10;99.90;;;;;;5078246;28;20402;-64
2021/12/16 17:46:50;;;;;;;;;;;9.20;99.90;;;;;;5076856;28;20007;-65
2021/12/16 17:49:16;;;;;;;;;;;9.20;99.90;;;;;;5073992;28;19947;-64
2021/12/16 17:51:42;;;;;;;;;;;9.10;99.90;;;;;;5080152;28;19955;-63
2021/12/16 17:54:09;;;;;;;;;;;9.10;99.90;;;;;;5068466;28;19924;-63
2021/12/16 17:56:35;;;;;;;;;;;9.10;99.90;;;;;;5071884;28;19908;-64
2021/12/16 17:59:02;;;;;;;;;;;9.20;99.90;;;;;;5070277;28;19919;-64
2021/12/16 18:01:29;;;;;;;;;;;9.10;99.90;;;;;;5074847;28;20930;-64
2021/12/16 18:03:59;;;;;;;;;;;9.10;99.90;;;;;;5076686;28;19916;-64
2021/12/16 18:06:27;;;;;;;;;;;9.10;99.90;;;;;;5078418;28;19912;-63